Flugplatz Stuttgart

Bericht für EDDS

vom 18.09. um 00:50 UTC

Wind 3 kt aus 320°

Sichtweite 10 km oder mehr

gute Sicht, keine Wolken < 5000 ft, keine CB, keine Wettererscheinungen (CAVOK)

Temperatur 10.0°C

Taupunkt 8.0°C

Luftfeuchtigkeit 87%

Luftdruck 1017 hPa

EDDS 180050Z 32003KT CAVOK 10/08 Q1017

Prognose für EDDS

vom 17.09. um 23:00 UTC

Zwischen 00:00 UTC und 09:00 UTC

variable Windrichtung mit 3 kt

Sichtweite 10 km oder mehr

keine signifikanten Wettererscheinungen

keine Wolken


Zwischen 03:00 UTC und 08:00 UTC zeitweise mit einer Wahrscheinlichkeit von 40%

Sichtweite 1000 m

Nebelschwaden


Zwischen 09:00 und 11:00 UTC übergehend zu

Wind 5 kt aus 40°

Sichtweite 10 km oder mehr

keine signifikanten Wettererscheinungen

keine Wolken


Zwischen 20:00 und 22:00 UTC übergehend zu

variable Windrichtung mit 3 kt

Sichtweite 10 km oder mehr

keine signifikanten Wettererscheinungen

keine Wolken

TAF EDDS 172300Z 1800/1824 VRB03KT CAVOK PROB40 TEMPO 1803/1808 1000 BCFG BECMG 1809/1811 04005KT BECMG 1820/1822 VRB03KT
Impressum